Airfield :
LOGIN :

Register | Disclaimer

   EN    FR    IT 

 










Legend :    VFR   Marginal VFR   IFR   Intensive IFR   Very Intensive IFR
Visi :
Ceiling :
>= 8 km
>= 3000ft
5 to 8 km
1000 to 3000 ft
1500m to 5 km
500 to 1000 ft
800 to 1500m
200 to 500 ft
< 800m
< 200 ft
Symbols :   Thunderstorms  Fog  Heavy snow  Heavy precipitations  Wind > 20 kt
SIGMETs :     Misc.  Thunderstorms  Icing  Turbulence  Mountain Waves  Volcanic Ashes







- Airport Elevation : 84 ft
- Download approach charts


LFBC - Cazaux

CURRENT METAR :
  • 221330Z AUTO 16010KT CAVOK 19/09 Q1000

EXPIRED METARs :
  • 221300Z AUTO 16010KT 9999 FEW008 BKN200 19/08 Q1000
  • 221230Z AUTO 14011KT 110V180 9999 FEW043 BKN200 19/09 Q1000
  • 221200Z AUTO 13013KT 110V180 9999 FEW045 OVC180 19/08 Q1001
  • 221130Z AUTO 13012KT CAVOK 18/08 Q1001
  • 221100Z AUTO 13010KT CAVOK 17/09 Q1002

Expired Forecast.
No reported NOTAMs for that airfield.



MET'MAP, your aeronautical weather chart ! - Copyright ORBIFLY December 2007 - Disclaimer

ORBIFLY MET'MAP TEAM :

Programming & Development : Alexandra Zaïnal
Concept & Development : Baudouin d'Aumeries
Co-Development & Prog : Marc-Olivier Méhu
Technical & hardware support : Manuel Goepfert

Contact : metmap@orbifly.com




SOURCES & CREDITS :

   NOAA